This is the latest recevied weather packets stored in our database for station/object W4MLN-3. If no packets are shown the sender has not sent any weather packets the latest 10 day(s).
| Time | Temp. | Humidity | Pressure | Rain* | Wind** | Luminosity | Snow |
|---|---|---|---|---|---|---|---|
| 1788519603 | 18.33° C | 92% | 1021 hPa | 0 mm | - | - | - |
| 1788519303 | 18.33° C | 92% | 1021.1 hPa | 0 mm | - | - | - |
| 1788519024 | 18.33° C | 92% | 1021 hPa | 0 mm | - | - | - |
| 1788518703 | 18.33° C | 92% | 1021.2 hPa | 0 mm | - | - | - |
| 1788384303 | 31.11° C | 58% | 1022.5 hPa | 0 mm | - | - | - |
| 1788384003 | 31.11° C | 59% | 1022.5 hPa | 0 mm | - | - | - |
| 1788383724 | 31.11° C | 57% | 1022.4 hPa | 0 mm | - | - | - |
| 1788383403 | 30.56° C | 61% | 1022.3 hPa | 0 mm | - | - | - |
| 1788383103 | 30.56° C | 57% | 1022.5 hPa | 0 mm | - | - | - |
| 1788382803 | 30° C | 56% | 1022.5 hPa | 0 mm | - | - | - |
| 1788382503 | 29.44° C | 59% | 1022.4 hPa | 0 mm | - | - | - |
| 1788382203 | 28.89° C | 59% | 1022.4 hPa | 0 mm | - | - | - |
| 1788381903 | 28.89° C | 66% | 1022.4 hPa | 0 mm | - | - | - |
| 1788381624 | 28.89° C | 63% | 1022.5 hPa | 0 mm | - | - | - |
| 1788381303 | 30° C | 59% | 1022.5 hPa | 0 mm | - | - | - |
| 1788381003 | 30.56° C | 57% | 1022.5 hPa | 0 mm | - | - | - |
| 1788380703 | 31.11° C | 53% | 1022.5 hPa | 0 mm | - | - | - |
| 1788380403 | 31.67° C | 51% | 1022.5 hPa | 0 mm | - | - | - |
| 1788380103 | 32.78° C | 50% | 1022.6 hPa | 0 mm | - | - | - |
| 1788379803 | 33.33° C | 49% | 1022.6 hPa | 0 mm | - | - | - |
| 1788379503 | 33.33° C | 48% | 1022.6 hPa | 0 mm | - | - | - |
| 1788379219 | 33.33° C | 47% | 1022.7 hPa | 0 mm | - | - | - |
| 1788378945 | 33.33° C | 48% | 1022.7 hPa | 0 mm | - | - | - |
| 1788378603 | 32.78° C | 48% | 1022.8 hPa | 0 mm | - | - | - |
| 1788378345 | 32.78° C | 48% | 1022.8 hPa | 0 mm | - | - | - |
* Rain latest hour (hover to see other rain measurements)
** Current wind speed in m/s (hover to see current wind gust speed)